sensor_id;sensor_type;location;lat;lon;timestamp;pressure;altitude;pressure_sealevel;temperature;humidity
54369;BME280;40266;52.434;17.056;2023-03-23T00:04:34;99850.20;;;7.97;93.40
54369;BME280;40266;52.434;17.056;2023-03-23T00:07:42;99853.77;;;8.01;93.32
54369;BME280;40266;52.434;17.056;2023-03-23T00:10:46;99849.88;;;8.04;93.34
54369;BME280;40266;52.434;17.056;2023-03-23T00:14:07;99841.98;;;8.07;93.35
54369;BME280;40266;52.434;17.056;2023-03-23T00:17:10;99844.20;;;8.10;93.17
54369;BME280;40266;52.434;17.056;2023-03-23T00:20:14;99842.92;;;8.12;93.02
54369;BME280;40266;52.434;17.056;2023-03-23T00:23:04;99848.66;;;8.13;92.98
54369;BME280;40266;52.434;17.056;2023-03-23T00:26:05;99849.72;;;8.12;92.84
54369;BME280;40266;52.434;17.056;2023-03-23T00:29:25;99844.52;;;8.11;92.81
54369;BME280;40266;52.434;17.056;2023-03-23T00:32:54;99836.69;;;8.11;92.76
54369;BME280;40266;52.434;17.056;2023-03-23T00:39:26;99836.73;;;8.09;92.52
54369;BME280;40266;52.434;17.056;2023-03-23T01:03:33;99813.70;;;7.87;92.08
54369;BME280;40266;52.434;17.056;2023-03-23T01:10:33;99804.87;;;7.77;92.04
54369;BME280;40266;52.434;17.056;2023-03-23T01:13:45;99801.33;;;7.72;91.98
54369;BME280;40266;52.434;17.056;2023-03-23T01:16:58;99800.16;;;7.69;91.98
54369;BME280;40266;52.434;17.056;2023-03-23T01:20:39;99799.05;;;7.63;92.14
54369;BME280;40266;52.434;17.056;2023-03-23T01:26:50;99803.23;;;7.54;92.25
54369;BME280;40266;52.434;17.056;2023-03-23T01:29:57;99803.13;;;7.50;92.16
54369;BME280;40266;52.434;17.056;2023-03-23T01:32:54;99801.13;;;7.46;92.15
54369;BME280;40266;52.434;17.056;2023-03-23T01:36:22;99798.39;;;7.42;92.27
54369;BME280;40266;52.434;17.056;2023-03-23T01:53:36;99774.71;;;7.37;93.27
54369;BME280;40266;52.434;17.056;2023-03-23T01:56:31;99767.64;;;7.44;93.40
54369;BME280;40266;52.434;17.056;2023-03-23T02:00:03;99764.71;;;7.51;93.44
54369;BME280;40266;52.434;17.056;2023-03-23T02:03:15;99757.27;;;7.58;93.40
54369;BME280;40266;52.434;17.056;2023-03-23T02:06:00;99754.55;;;7.64;93.47
54369;BME280;40266;52.434;17.056;2023-03-23T02:08:50;99748.76;;;7.67;93.33
54369;BME280;40266;52.434;17.056;2023-03-23T02:11:34;99747.48;;;7.70;93.16
54369;BME280;40266;52.434;17.056;2023-03-23T02:14:17;99745.63;;;7.75;93.12
54369;BME280;40266;52.434;17.056;2023-03-23T02:20:17;99737.11;;;7.83;92.73
54369;BME280;40266;52.434;17.056;2023-03-23T02:26:08;99729.19;;;7.89;92.77
54369;BME280;40266;52.434;17.056;2023-03-23T02:29:28;99729.49;;;7.91;92.50
54369;BME280;40266;52.434;17.056;2023-03-23T02:35:01;99716.73;;;7.94;92.52
54369;BME280;40266;52.434;17.056;2023-03-23T02:38:02;99711.77;;;7.97;92.47
54369;BME280;40266;52.434;17.056;2023-03-23T02:40:49;99709.38;;;8.05;92.33
54369;BME280;40266;52.434;17.056;2023-03-23T02:43:40;99711.17;;;8.10;92.31
54369;BME280;40266;52.434;17.056;2023-03-23T02:46:25;99714.91;;;8.12;91.98
54369;BME280;40266;52.434;17.056;2023-03-23T02:49:08;99713.89;;;8.12;91.81
54369;BME280;40266;52.434;17.056;2023-03-23T02:51:51;99704.08;;;8.15;91.99
54369;BME280;40266;52.434;17.056;2023-03-23T02:54:35;99701.73;;;8.19;91.88
54369;BME280;40266;52.434;17.056;2023-03-23T02:57:19;99697.84;;;8.21;91.60
54369;BME280;40266;52.434;17.056;2023-03-23T03:00:04;99701.13;;;8.22;91.57
54369;BME280;40266;52.434;17.056;2023-03-23T03:02:53;99702.66;;;8.24;91.33
54369;BME280;40266;52.434;17.056;2023-03-23T03:08:50;99709.55;;;8.27;91.21
54369;BME280;40266;52.434;17.056;2023-03-23T03:11:39;99706.91;;;8.29;91.08
54369;BME280;40266;52.434;17.056;2023-03-23T03:14:39;99705.35;;;8.27;91.05
54369;BME280;40266;52.434;17.056;2023-03-23T03:17:26;99706.02;;;8.29;91.01
54369;BME280;40266;52.434;17.056;2023-03-23T03:20:10;99706.67;;;8.31;90.92
54369;BME280;40266;52.434;17.056;2023-03-23T03:22:55;99699.71;;;8.31;90.79
54369;BME280;40266;52.434;17.056;2023-03-23T03:25:40;99701.41;;;8.33;90.84
54369;BME280;40266;52.434;17.056;2023-03-23T03:28:29;99701.55;;;8.34;90.85
54369;BME280;40266;52.434;17.056;2023-03-23T03:31:11;99693.16;;;8.36;90.76
54369;BME280;40266;52.434;17.056;2023-03-23T03:33:53;99688.91;;;8.39;90.71
54369;BME280;40266;52.434;17.056;2023-03-23T03:36:36;99686.39;;;8.44;90.65
54369;BME280;40266;52.434;17.056;2023-03-23T03:39:21;99686.67;;;8.46;90.55
54369;BME280;40266;52.434;17.056;2023-03-23T03:42:06;99679.57;;;8.52;90.56
54369;BME280;40266;52.434;17.056;2023-03-23T03:44:48;99678.89;;;8.58;90.44
54369;BME280;40266;52.434;17.056;2023-03-23T03:47:30;99682.06;;;8.64;90.27
54369;BME280;40266;52.434;17.056;2023-03-23T03:50:12;99680.75;;;8.68;90.04
54369;BME280;40266;52.434;17.056;2023-03-23T03:52:55;99679.27;;;8.71;89.86
54369;BME280;40266;52.434;17.056;2023-03-23T03:55:37;99679.73;;;8.73;89.65
54369;BME280;40266;52.434;17.056;2023-03-23T03:58:23;99684.39;;;8.75;89.61
54369;BME280;40266;52.434;17.056;2023-03-23T04:01:21;99683.11;;;8.77;89.42
54369;BME280;40266;52.434;17.056;2023-03-23T04:04:04;99682.02;;;8.79;89.33
54369;BME280;40266;52.434;17.056;2023-03-23T04:06:50;99678.98;;;8.81;89.35
54369;BME280;40266;52.434;17.056;2023-03-23T04:09:32;99679.10;;;8.84;89.11
54369;BME280;40266;52.434;17.056;2023-03-23T04:12:15;99677.63;;;8.87;89.25
54369;BME280;40266;52.434;17.056;2023-03-23T04:15:23;99680.70;;;8.90;88.99
54369;BME280;40266;52.434;17.056;2023-03-23T04:18:05;99686.22;;;8.92;88.86
54369;BME280;40266;52.434;17.056;2023-03-23T04:20:48;99686.70;;;8.93;88.86
54369;BME280;40266;52.434;17.056;2023-03-23T04:23:34;99683.02;;;8.94;88.88
54369;BME280;40266;52.434;17.056;2023-03-23T04:26:18;99682.81;;;8.96;88.76
54369;BME280;40266;52.434;17.056;2023-03-23T04:29:03;99676.63;;;8.99;88.65
54369;BME280;40266;52.434;17.056;2023-03-23T04:32:13;99670.60;;;9.02;88.47
54369;BME280;40266;52.434;17.056;2023-03-23T04:34:59;99671.03;;;9.06;88.27
54369;BME280;40266;52.434;17.056;2023-03-23T04:37:46;99674.39;;;9.11;88.11
54369;BME280;40266;52.434;17.056;2023-03-23T04:40:30;99668.73;;;9.14;88.05
54369;BME280;40266;52.434;17.056;2023-03-23T04:43:23;99664.27;;;9.18;87.81
54369;BME280;40266;52.434;17.056;2023-03-23T04:46:32;99659.43;;;9.22;87.62
54369;BME280;40266;52.434;17.056;2023-03-23T04:49:20;99653.95;;;9.26;87.53
54369;BME280;40266;52.434;17.056;2023-03-23T04:52:03;99650.85;;;9.30;87.39
54369;BME280;40266;52.434;17.056;2023-03-23T04:54:58;99652.13;;;9.35;87.22
54369;BME280;40266;52.434;17.056;2023-03-23T04:57:40;99647.64;;;9.39;86.97
54369;BME280;40266;52.434;17.056;2023-03-23T05:00:41;99648.36;;;9.44;86.75
54369;BME280;40266;52.434;17.056;2023-03-23T05:03:26;99645.46;;;9.48;86.75
54369;BME280;40266;52.434;17.056;2023-03-23T05:06:10;99641.33;;;9.52;86.44
54369;BME280;40266;52.434;17.056;2023-03-23T05:08:52;99644.13;;;9.58;86.20
54369;BME280;40266;52.434;17.056;2023-03-23T05:11:36;99642.02;;;9.64;86.00
54369;BME280;40266;52.434;17.056;2023-03-23T05:14:18;99643.27;;;9.69;85.81
54369;BME280;40266;52.434;17.056;2023-03-23T05:17:04;99641.33;;;9.75;85.77
54369;BME280;40266;52.434;17.056;2023-03-23T05:19:46;99636.48;;;9.80;85.50
54369;BME280;40266;52.434;17.056;2023-03-23T05:23:04;99637.67;;;9.86;85.30
54369;BME280;40266;52.434;17.056;2023-03-23T05:25:54;99636.00;;;9.90;85.05
54369;BME280;40266;52.434;17.056;2023-03-23T05:28:38;99635.31;;;9.95;84.83
54369;BME280;40266;52.434;17.056;2023-03-23T05:31:34;99627.09;;;10.02;84.58
54369;BME280;40266;52.434;17.056;2023-03-23T05:34:16;99621.34;;;10.07;84.36
54369;BME280;40266;52.434;17.056;2023-03-23T05:37:11;99623.36;;;10.14;84.21
54369;BME280;40266;52.434;17.056;2023-03-23T05:40:06;99620.18;;;10.21;83.87
54369;BME280;40266;52.434;17.056;2023-03-23T05:42:48;99621.04;;;10.27;83.27
54369;BME280;40266;52.434;17.056;2023-03-23T05:45:39;99611.23;;;10.34;83.41
54369;BME280;40266;52.434;17.056;2023-03-23T05:48:21;99612.62;;;10.40;83.14
54369;BME280;40266;52.434;17.056;2023-03-23T05:51:04;99617.34;;;10.45;83.18
54369;BME280;40266;52.434;17.056;2023-03-23T05:53:47;99614.20;;;10.50;82.67
54369;BME280;40266;52.434;17.056;2023-03-23T05:56:31;99626.36;;;10.57;82.61
54369;BME280;40266;52.434;17.056;2023-03-23T05:59:15;99622.64;;;10.63;82.04
54369;BME280;40266;52.434;17.056;2023-03-23T06:02:00;99631.88;;;10.69;81.88
54369;BME280;40266;52.434;17.056;2023-03-23T06:04:42;99634.65;;;10.74;81.59
54369;BME280;40266;52.434;17.056;2023-03-23T06:07:30;99630.42;;;10.81;81.37
54369;BME280;40266;52.434;17.056;2023-03-23T06:10:18;99630.87;;;10.88;81.06
54369;BME280;40266;52.434;17.056;2023-03-23T06:13:08;99629.47;;;10.93;80.96
54369;BME280;40266;52.434;17.056;2023-03-23T06:16:08;99625.05;;;10.99;80.79
54369;BME280;40266;52.434;17.056;2023-03-23T06:19:11;99623.71;;;11.07;80.48
54369;BME280;40266;52.434;17.056;2023-03-23T06:22:01;99619.91;;;11.16;80.31
54369;BME280;40266;52.434;17.056;2023-03-23T06:24:58;99615.14;;;11.27;80.07
54369;BME280;40266;52.434;17.056;2023-03-23T06:27:47;99604.42;;;11.37;79.55
54369;BME280;40266;52.434;17.056;2023-03-23T06:30:29;99598.35;;;11.50;78.95
54369;BME280;40266;52.434;17.056;2023-03-23T06:33:12;99596.32;;;11.62;78.88
54369;BME280;40266;52.434;17.056;2023-03-23T06:36:19;99590.88;;;11.71;78.46
54369;BME280;40266;52.434;17.056;2023-03-23T06:39:21;99595.86;;;11.78;77.99
54369;BME280;40266;52.434;17.056;2023-03-23T06:42:18;99597.86;;;11.85;77.71
54369;BME280;40266;52.434;17.056;2023-03-23T06:45:05;99603.02;;;11.92;77.42
54369;BME280;40266;52.434;17.056;2023-03-23T06:47:47;99609.28;;;12.02;76.96
54369;BME280;40266;52.434;17.056;2023-03-23T06:50:32;99611.87;;;12.20;76.77
54369;BME280;40266;52.434;17.056;2023-03-23T06:53:14;99612.25;;;12.41;76.31
54369;BME280;40266;52.434;17.056;2023-03-23T06:55:57;99612.89;;;12.63;76.08
54369;BME280;40266;52.434;17.056;2023-03-23T06:58:40;99614.70;;;12.74;75.79
54369;BME280;40266;52.434;17.056;2023-03-23T07:01:23;99606.92;;;12.79;75.21
54369;BME280;40266;52.434;17.056;2023-03-23T07:04:10;99604.27;;;12.88;74.80
54369;BME280;40266;52.434;17.056;2023-03-23T07:07:03;99604.69;;;13.06;74.40
54369;BME280;40266;52.434;17.056;2023-03-23T07:09:48;99603.13;;;13.34;73.68
54369;BME280;40266;52.434;17.056;2023-03-23T07:12:32;99604.02;;;13.90;72.49
54369;BME280;40266;52.434;17.056;2023-03-23T07:15:15;99601.73;;;14.26;71.68
54369;BME280;40266;52.434;17.056;2023-03-23T07:17:58;99598.79;;;14.39;71.10
54369;BME280;40266;52.434;17.056;2023-03-23T07:20:49;99596.55;;;14.46;69.68
54369;BME280;40266;52.434;17.056;2023-03-23T07:23:31;99596.23;;;14.45;69.02
54369;BME280;40266;52.434;17.056;2023-03-23T07:26:17;99600.42;;;14.41;67.53
54369;BME280;40266;52.434;17.056;2023-03-23T07:29:05;99607.67;;;14.33;67.97
54369;BME280;40266;52.434;17.056;2023-03-23T07:31:52;99606.33;;;14.29;67.65
54369;BME280;40266;52.434;17.056;2023-03-23T07:34:34;99612.19;;;14.27;68.22
54369;BME280;40266;52.434;17.056;2023-03-23T07:37:28;99609.66;;;14.29;67.20
54369;BME280;40266;52.434;17.056;2023-03-23T07:40:12;99612.89;;;14.34;67.15
54369;BME280;40266;52.434;17.056;2023-03-23T07:43:00;99613.50;;;14.40;67.49
54369;BME280;40266;52.434;17.056;2023-03-23T07:46:12;99608.88;;;14.44;67.40
54369;BME280;40266;52.434;17.056;2023-03-23T07:49:18;99608.07;;;14.46;67.38
54369;BME280;40266;52.434;17.056;2023-03-23T07:52:07;99608.64;;;14.49;67.19
54369;BME280;40266;52.434;17.056;2023-03-23T07:54:50;99607.72;;;14.50;66.09
54369;BME280;40266;52.434;17.056;2023-03-23T07:57:46;99607.20;;;14.46;66.43
54369;BME280;40266;52.434;17.056;2023-03-23T08:00:28;99607.52;;;14.44;66.24
54369;BME280;40266;52.434;17.056;2023-03-23T08:03:12;99610.46;;;14.41;66.30
54369;BME280;40266;52.434;17.056;2023-03-23T08:06:24;99611.45;;;14.43;66.67
54369;BME280;40266;52.434;17.056;2023-03-23T08:09:26;99612.29;;;14.43;65.89
54369;BME280;40266;52.434;17.056;2023-03-23T08:12:27;99615.78;;;14.44;66.07
54369;BME280;40266;52.434;17.056;2023-03-23T08:15:32;99614.76;;;14.43;65.88
54369;BME280;40266;52.434;17.056;2023-03-23T08:18:44;99619.48;;;14.47;65.71
54369;BME280;40266;52.434;17.056;2023-03-23T08:21:47;99613.33;;;14.54;65.79
54369;BME280;40266;52.434;17.056;2023-03-23T08:24:54;99612.96;;;14.62;65.66
54369;BME280;40266;52.434;17.056;2023-03-23T08:27:49;99610.05;;;14.70;65.04
54369;BME280;40266;52.434;17.056;2023-03-23T08:30:46;99613.77;;;14.77;64.70
54369;BME280;40266;52.434;17.056;2023-03-23T08:33:49;99612.86;;;14.85;64.51
54369;BME280;40266;52.434;17.056;2023-03-23T08:36:46;99607.73;;;14.91;64.16
54369;BME280;40266;52.434;17.056;2023-03-23T08:39:28;99607.88;;;14.99;63.96
54369;BME280;40266;52.434;17.056;2023-03-23T08:42:40;99604.73;;;15.02;63.15
54369;BME280;40266;52.434;17.056;2023-03-23T08:45:41;99602.90;;;15.07;63.22
54369;BME280;40266;52.434;17.056;2023-03-23T08:48:26;99607.86;;;15.15;63.73
54369;BME280;40266;52.434;17.056;2023-03-23T08:51:43;99604.84;;;15.30;63.46
54369;BME280;40266;52.434;17.056;2023-03-23T08:54:47;99607.64;;;15.39;62.40
54369;BME280;40266;52.434;17.056;2023-03-23T08:57:46;99611.33;;;15.46;61.91
54369;BME280;40266;52.434;17.056;2023-03-23T09:00:54;99606.27;;;15.49;62.16
54369;BME280;40266;52.434;17.056;2023-03-23T09:04:05;99604.14;;;15.49;62.15
54369;BME280;40266;52.434;17.056;2023-03-23T09:07:11;99597.83;;;15.49;61.88
54369;BME280;40266;52.434;17.056;2023-03-23T09:09:55;99597.12;;;15.52;61.86
54369;BME280;40266;52.434;17.056;2023-03-23T09:12:37;99604.54;;;15.58;61.29
54369;BME280;40266;52.434;17.056;2023-03-23T09:15:20;99610.15;;;15.61;61.17
54369;BME280;40266;52.434;17.056;2023-03-23T09:18:02;99610.96;;;15.66;60.71
54369;BME280;40266;52.434;17.056;2023-03-23T09:20:46;99609.20;;;15.73;61.02
54369;BME280;40266;52.434;17.056;2023-03-23T09:23:31;99618.70;;;15.82;60.80
54369;BME280;40266;52.434;17.056;2023-03-23T09:26:13;99622.95;;;15.92;60.32
54369;BME280;40266;52.434;17.056;2023-03-23T09:28:56;99622.64;;;16.09;60.04
54369;BME280;40266;52.434;17.056;2023-03-23T09:31:38;99623.79;;;16.35;59.54
54369;BME280;40266;52.434;17.056;2023-03-23T09:34:22;99617.20;;;16.66;59.61
54369;BME280;40266;52.434;17.056;2023-03-23T09:37:04;99617.27;;;16.98;58.20
54369;BME280;40266;52.434;17.056;2023-03-23T09:39:46;99615.79;;;17.17;58.17
54369;BME280;40266;52.434;17.056;2023-03-23T09:45:47;99621.08;;;17.48;58.47
54369;BME280;40266;52.434;17.056;2023-03-23T09:48:38;99622.17;;;17.59;58.13
54369;BME280;40266;52.434;17.056;2023-03-23T09:54:24;99630.39;;;17.58;56.24
54369;BME280;40266;52.434;17.056;2023-03-23T09:57:16;99641.18;;;17.45;56.06
54369;BME280;40266;52.434;17.056;2023-03-23T10:00:15;99635.73;;;17.37;56.19
54369;BME280;40266;52.434;17.056;2023-03-23T10:05:50;99638.30;;;17.18;56.18
54369;BME280;40266;52.434;17.056;2023-03-23T10:08:33;99642.03;;;17.00;55.91
54369;BME280;40266;52.434;17.056;2023-03-23T10:14:27;99662.78;;;16.56;56.57
54369;BME280;40266;52.434;17.056;2023-03-23T10:17:23;99668.73;;;16.35;56.74
54369;BME280;40266;52.434;17.056;2023-03-23T10:32:12;99687.80;;;15.34;58.91
54369;BME280;40266;52.434;17.056;2023-03-23T10:34:58;99696.59;;;15.24;59.74
54369;BME280;40266;52.434;17.056;2023-03-23T10:37:55;99699.52;;;15.15;60.59
54369;BME280;40266;52.434;17.056;2023-03-23T10:40:48;99700.10;;;15.07;60.97
54369;BME280;40266;52.434;17.056;2023-03-23T10:43:32;99700.92;;;14.91;62.14
54369;BME280;40266;52.434;17.056;2023-03-23T10:49:06;99713.02;;;14.74;64.26
54369;BME280;40266;52.434;17.056;2023-03-23T10:55:18;99717.67;;;14.76;66.58
54369;BME280;40266;52.434;17.056;2023-03-23T10:58:12;99718.84;;;14.81;66.86
54369;BME280;40266;52.434;17.056;2023-03-23T11:00:56;99714.52;;;14.87;67.12
54369;BME280;40266;52.434;17.056;2023-03-23T11:03:42;99717.31;;;14.90;66.73
54369;BME280;40266;52.434;17.056;2023-03-23T11:06:29;99711.44;;;14.95;66.87
54369;BME280;40266;52.434;17.056;2023-03-23T11:09:16;99713.30;;;15.04;66.84
54369;BME280;40266;52.434;17.056;2023-03-23T11:11:59;99707.65;;;15.11;66.69
54369;BME280;40266;52.434;17.056;2023-03-23T11:14:41;99708.15;;;15.15;66.61
54369;BME280;40266;52.434;17.056;2023-03-23T11:17:26;99702.02;;;15.21;66.78
54369;BME280;40266;52.434;17.056;2023-03-23T11:20:12;99698.19;;;15.27;66.93
54369;BME280;40266;52.434;17.056;2023-03-23T11:22:54;99699.08;;;15.34;66.76
54369;BME280;40266;52.434;17.056;2023-03-23T11:25:50;99701.46;;;15.42;67.00
54369;BME280;40266;52.434;17.056;2023-03-23T11:28:35;99704.80;;;15.52;67.43
54369;BME280;40266;52.434;17.056;2023-03-23T11:31:22;99704.17;;;15.57;66.77
54369;BME280;40266;52.434;17.056;2023-03-23T11:34:17;99704.45;;;15.59;66.82
54369;BME280;40266;52.434;17.056;2023-03-23T11:37:10;99708.71;;;15.65;66.38
54369;BME280;40266;52.434;17.056;2023-03-23T11:40:00;99695.70;;;15.71;65.77
54369;BME280;40266;52.434;17.056;2023-03-23T11:42:57;99690.56;;;15.75;65.97
54369;BME280;40266;52.434;17.056;2023-03-23T11:45:47;99683.81;;;15.79;65.34
54369;BME280;40266;52.434;17.056;2023-03-23T11:51:48;99691.16;;;15.63;64.47
54369;BME280;40266;52.434;17.056;2023-03-23T11:54:38;99688.05;;;15.50;64.36
54369;BME280;40266;52.434;17.056;2023-03-23T11:57:22;99688.19;;;15.40;64.46
54369;BME280;40266;52.434;17.056;2023-03-23T12:00:17;99679.52;;;15.31;64.20
54369;BME280;40266;52.434;17.056;2023-03-23T12:06:34;99678.48;;;15.11;63.96
54369;BME280;40266;52.434;17.056;2023-03-23T12:26:31;99680.89;;;15.42;64.67
54369;BME280;40266;52.434;17.056;2023-03-23T12:38:08;99679.30;;;15.29;64.38
54369;BME280;40266;52.434;17.056;2023-03-23T12:41:17;99681.52;;;15.23;64.80
54369;BME280;40266;52.434;17.056;2023-03-23T12:44:06;99677.16;;;15.19;64.90
54369;BME280;40266;52.434;17.056;2023-03-23T12:46:58;99675.02;;;15.20;64.99
54369;BME280;40266;52.434;17.056;2023-03-23T12:52:53;99675.73;;;15.16;64.70
54369;BME280;40266;52.434;17.056;2023-03-23T12:55:44;99680.35;;;15.12;65.01
54369;BME280;40266;52.434;17.056;2023-03-23T12:58:28;99674.27;;;15.10;65.21
54369;BME280;40266;52.434;17.056;2023-03-23T13:04:12;99673.81;;;15.05;65.11
54369;BME280;40266;52.434;17.056;2023-03-23T13:06:58;99674.97;;;15.04;65.25
54369;BME280;40266;52.434;17.056;2023-03-23T13:09:48;99674.36;;;15.05;65.34
54369;BME280;40266;52.434;17.056;2023-03-23T13:12:31;99680.25;;;15.07;65.42
54369;BME280;40266;52.434;17.056;2023-03-23T13:18:27;99680.41;;;15.10;65.46
54369;BME280;40266;52.434;17.056;2023-03-23T13:21:35;99678.59;;;15.12;65.36
54369;BME280;40266;52.434;17.056;2023-03-23T13:24:20;99675.88;;;15.13;65.21
54369;BME280;40266;52.434;17.056;2023-03-23T13:27:05;99681.00;;;15.16;65.23
54369;BME280;40266;52.434;17.056;2023-03-23T13:29:50;99673.48;;;15.18;65.13
54369;BME280;40266;52.434;17.056;2023-03-23T13:32:37;99672.81;;;15.21;65.19
54369;BME280;40266;52.434;17.056;2023-03-23T13:35:20;99669.15;;;15.24;64.99
54369;BME280;40266;52.434;17.056;2023-03-23T13:38:34;99670.17;;;15.25;64.38
54369;BME280;40266;52.434;17.056;2023-03-23T13:41:16;99671.58;;;15.28;64.86
54369;BME280;40266;52.434;17.056;2023-03-23T13:44:22;99672.87;;;15.34;65.01
54369;BME280;40266;52.434;17.056;2023-03-23T13:50:01;99656.99;;;15.41;64.83
54369;BME280;40266;52.434;17.056;2023-03-23T13:58:11;99653.06;;;15.29;64.63
54369;BME280;40266;52.434;17.056;2023-03-23T14:01:13;99656.09;;;15.28;65.21
54369;BME280;40266;52.434;17.056;2023-03-23T14:03:59;99656.80;;;15.28;65.14
54369;BME280;40266;52.434;17.056;2023-03-23T14:06:42;99658.69;;;15.29;64.74
54369;BME280;40266;52.434;17.056;2023-03-23T14:09:33;99656.10;;;15.25;64.65
54369;BME280;40266;52.434;17.056;2023-03-23T14:12:26;99651.88;;;15.22;64.73
54369;BME280;40266;52.434;17.056;2023-03-23T14:15:13;99657.04;;;15.20;64.92
54369;BME280;40266;52.434;17.056;2023-03-23T14:17:56;99654.40;;;15.20;64.96
54369;BME280;40266;52.434;17.056;2023-03-23T14:20:45;99653.40;;;15.19;65.22
54369;BME280;40266;52.434;17.056;2023-03-23T14:23:33;99650.27;;;15.19;64.94
54369;BME280;40266;52.434;17.056;2023-03-23T14:26:17;99658.06;;;15.17;64.80
54369;BME280;40266;52.434;17.056;2023-03-23T14:29:01;99656.21;;;15.16;64.72
54369;BME280;40266;52.434;17.056;2023-03-23T14:31:45;99661.77;;;15.14;64.95
54369;BME280;40266;52.434;17.056;2023-03-23T14:34:31;99660.80;;;15.12;64.96
54369;BME280;40266;52.434;17.056;2023-03-23T14:37:15;99661.58;;;15.11;65.30
54369;BME280;40266;52.434;17.056;2023-03-23T14:39:58;99663.48;;;15.11;64.92
54369;BME280;40266;52.434;17.056;2023-03-23T14:42:40;99657.55;;;15.11;65.15
54369;BME280;40266;52.434;17.056;2023-03-23T14:45:24;99659.83;;;15.11;65.37
54369;BME280;40266;52.434;17.056;2023-03-23T14:48:12;99657.71;;;15.11;65.47
54369;BME280;40266;52.434;17.056;2023-03-23T14:50:59;99648.63;;;15.10;65.39
54369;BME280;40266;52.434;17.056;2023-03-23T14:53:46;99651.29;;;15.06;65.50
54369;BME280;40266;52.434;17.056;2023-03-23T14:56:35;99651.73;;;15.04;65.61
54369;BME280;40266;52.434;17.056;2023-03-23T14:59:18;99651.84;;;15.02;65.83
54369;BME280;40266;52.434;17.056;2023-03-23T15:02:00;99653.55;;;15.03;66.13
54369;BME280;40266;52.434;17.056;2023-03-23T15:04:45;99654.16;;;15.05;66.32
54369;BME280;40266;52.434;17.056;2023-03-23T15:07:36;99658.89;;;15.06;66.14
54369;BME280;40266;52.434;17.056;2023-03-23T15:10:20;99650.94;;;15.06;66.28
54369;BME280;40266;52.434;17.056;2023-03-23T15:13:03;99643.68;;;15.04;66.21
54369;BME280;40266;52.434;17.056;2023-03-23T15:15:45;99647.33;;;15.01;66.32
54369;BME280;40266;52.434;17.056;2023-03-23T15:18:37;99645.98;;;15.00;66.60
54369;BME280;40266;52.434;17.056;2023-03-23T15:22:13;99646.64;;;15.01;66.62
54369;BME280;40266;52.434;17.056;2023-03-23T15:24:33;99645.31;;;14.99;66.72
54369;BME280;40266;52.434;17.056;2023-03-23T15:27:30;99635.45;;;14.96;66.88
54369;BME280;40266;52.434;17.056;2023-03-23T15:30:15;99645.39;;;14.94;66.74
54369;BME280;40266;52.434;17.056;2023-03-23T15:33:12;99647.89;;;14.93;66.89
54369;BME280;40266;52.434;17.056;2023-03-23T15:35:56;99643.25;;;14.94;66.72
54369;BME280;40266;52.434;17.056;2023-03-23T15:38:38;99647.91;;;15.00;66.67
54369;BME280;40266;52.434;17.056;2023-03-23T15:41:26;99647.59;;;15.06;66.85
54369;BME280;40266;52.434;17.056;2023-03-23T15:44:11;99655.64;;;15.10;66.86
54369;BME280;40266;52.434;17.056;2023-03-23T15:47:13;99659.80;;;15.11;66.75
54369;BME280;40266;52.434;17.056;2023-03-23T15:50:11;99666.00;;;15.11;66.80
54369;BME280;40266;52.434;17.056;2023-03-23T15:52:54;99670.19;;;15.11;66.81
54369;BME280;40266;52.434;17.056;2023-03-23T15:55:37;99675.54;;;15.10;66.74
54369;BME280;40266;52.434;17.056;2023-03-23T15:58:20;99681.16;;;15.07;66.45
54369;BME280;40266;52.434;17.056;2023-03-23T16:01:06;99675.53;;;15.03;66.41
54369;BME280;40266;52.434;17.056;2023-03-23T16:03:56;99673.26;;;14.99;66.35
54369;BME280;40266;52.434;17.056;2023-03-23T16:06:40;99673.91;;;14.93;66.48
54369;BME280;40266;52.434;17.056;2023-03-23T16:09:24;99674.58;;;14.87;66.36
54369;BME280;40266;52.434;17.056;2023-03-23T16:12:11;99671.57;;;14.81;66.46
54369;BME280;40266;52.434;17.056;2023-03-23T16:14:55;99669.02;;;14.75;66.49
54369;BME280;40266;52.434;17.056;2023-03-23T16:17:38;99676.81;;;14.71;66.53
54369;BME280;40266;52.434;17.056;2023-03-23T16:20:22;99677.55;;;14.67;66.66
54369;BME280;40266;52.434;17.056;2023-03-23T16:23:05;99681.23;;;14.64;66.82
54369;BME280;40266;52.434;17.056;2023-03-23T16:25:49;99683.17;;;14.60;66.91
54369;BME280;40266;52.434;17.056;2023-03-23T16:28:32;99680.80;;;14.54;66.92
54369;BME280;40266;52.434;17.056;2023-03-23T16:31:15;99683.11;;;14.50;67.14
54369;BME280;40266;52.434;17.056;2023-03-23T16:33:58;99685.02;;;14.46;67.36
54369;BME280;40266;52.434;17.056;2023-03-23T16:36:41;99685.98;;;14.41;67.35
54369;BME280;40266;52.434;17.056;2023-03-23T16:39:24;99685.58;;;14.35;67.44
54369;BME280;40266;52.434;17.056;2023-03-23T16:42:08;99689.52;;;14.30;67.32
54369;BME280;40266;52.434;17.056;2023-03-23T16:44:51;99691.14;;;14.25;67.66
54369;BME280;40266;52.434;17.056;2023-03-23T16:47:37;99694.14;;;14.21;67.82
54369;BME280;40266;52.434;17.056;2023-03-23T16:50:20;99695.25;;;14.17;67.78
54369;BME280;40266;52.434;17.056;2023-03-23T16:53:04;99692.79;;;14.13;67.91
54369;BME280;40266;52.434;17.056;2023-03-23T16:55:52;99697.10;;;14.11;68.06
54369;BME280;40266;52.434;17.056;2023-03-23T16:58:39;99700.30;;;14.07;68.13
54369;BME280;40266;52.434;17.056;2023-03-23T17:01:24;99704.13;;;14.04;68.37
54369;BME280;40266;52.434;17.056;2023-03-23T17:04:07;99703.18;;;14.01;68.30
54369;BME280;40266;52.434;17.056;2023-03-23T17:06:50;99710.02;;;13.98;68.52
54369;BME280;40266;52.434;17.056;2023-03-23T17:09:33;99712.93;;;13.95;68.54
54369;BME280;40266;52.434;17.056;2023-03-23T17:12:16;99716.55;;;13.93;68.60
54369;BME280;40266;52.434;17.056;2023-03-23T17:14:59;99709.81;;;13.90;68.62